createdAt,value
2017-04-21T00:00:34.902Z,14.43
2017-04-21T00:01:48.020Z,12.52
2017-04-21T00:02:59.234Z,12.13
2017-04-21T00:04:11.792Z,12.43
2017-04-21T00:05:17.236Z,12.97
2017-04-21T00:06:24.736Z,12.10
2017-04-21T00:07:30.595Z,16.43
2017-04-21T00:08:37.775Z,12.08
2017-04-21T00:09:47.079Z,13.12
2017-04-21T00:10:58.367Z,13.73
2017-04-21T00:12:07.029Z,13.53
2017-04-21T00:13:17.703Z,13.60
2017-04-21T00:14:34.108Z,13.23
2017-04-21T00:15:45.551Z,12.88
2017-04-21T00:17:01.195Z,13.25
2017-04-21T00:18:12.483Z,15.75
2017-04-21T00:19:21.947Z,13.18
2017-04-21T00:20:36.147Z,14.18
2017-04-21T00:21:52.131Z,13.75
2017-04-21T00:23:09.962Z,13.82
2017-04-21T00:24:20.099Z,13.13
2017-04-21T00:25:27.272Z,13.82
2017-04-21T00:26:43.948Z,13.93
2017-04-21T00:27:49.487Z,12.30
2017-04-21T00:29:03.893Z,13.68
2017-04-21T00:30:14.860Z,13.05
2017-04-21T00:31:30.563Z,12.17
2017-04-21T00:32:39.972Z,12.27
2017-04-21T00:33:53.963Z,14.80
2017-04-21T00:35:08.731Z,13.03
2017-04-21T00:36:19.984Z,14.32
2017-04-21T00:37:31.110Z,13.63
2017-04-21T00:38:41.068Z,13.42
2017-04-21T00:39:51.591Z,12.15
2017-04-21T00:41:04.093Z,11.63
2017-04-21T00:42:14.666Z,12.43
2017-04-21T00:43:24.015Z,15.83
2017-04-21T00:44:31.603Z,12.13
2017-04-21T00:45:39.686Z,12.00
2017-04-21T00:46:47.797Z,14.53
2017-04-21T00:48:07.455Z,12.47
2017-04-21T00:49:18.808Z,16.15
2017-04-21T00:50:32.747Z,11.85
2017-04-21T00:51:45.103Z,13.50
2017-04-21T00:52:50.500Z,13.60
2017-04-21T00:54:10.649Z,12.43
2017-04-21T00:55:17.068Z,12.50
2017-04-21T00:56:25.315Z,12.53
2017-04-21T00:57:35.334Z,12.97
2017-04-21T00:58:40.523Z,11.80
2017-04-21T01:01:15.876Z,12.27
2017-04-21T01:02:29.137Z,14.70
2017-04-21T01:03:40.480Z,11.98
2017-04-21T01:04:55.115Z,10.77
2017-04-21T01:06:04.527Z,12.55
2017-04-21T01:07:13.272Z,10.13
2017-04-21T01:08:20.995Z,11.17
2017-04-21T01:09:36.311Z,12.02
2017-04-21T01:10:51.148Z,10.32
2017-04-21T01:12:02.265Z,11.45
2017-04-21T01:13:11.223Z,11.43
2017-04-21T01:14:19.360Z,10.57
2017-04-21T01:15:29.992Z,12.33
2017-04-21T01:16:35.653Z,11.25
2017-04-21T01:17:45.719Z,11.50
2017-04-21T01:18:53.502Z,11.15
2017-04-21T01:19:58.084Z,12.58
2017-04-21T01:21:06.794Z,10.53
2017-04-21T01:22:19.477Z,10.37
2017-04-21T01:23:26.336Z,12.00
2017-04-21T01:24:36.779Z,12.48
2017-04-21T01:25:46.278Z,12.15
2017-04-21T01:27:00.387Z,11.05
2017-04-21T01:28:09.891Z,11.20
2017-04-21T01:29:18.447Z,11.87
2017-04-21T01:30:25.848Z,12.08
2017-04-21T01:31:31.733Z,11.95
2017-04-21T01:32:39.563Z,11.58
2017-04-21T01:34:58.402Z,12.87
2017-04-21T01:36:07.559Z,13.10
2017-04-21T01:37:17.239Z,12.32
2017-04-21T01:38:48.898Z,13.22
2017-04-21T01:40:04.493Z,11.85
2017-04-21T01:41:17.179Z,12.25
2017-04-21T01:42:33.119Z,11.20
2017-04-21T01:43:40.123Z,11.78
2017-04-21T01:44:49.563Z,11.67
2017-04-21T01:46:08.158Z,12.22
2017-04-21T01:47:22.613Z,12.55
2017-04-21T01:48:35.952Z,12.03
2017-04-21T01:49:44.360Z,11.65
2017-04-21T01:50:55.273Z,11.10
2017-04-21T01:52:14.578Z,11.27
2017-04-21T01:53:22.056Z,12.22
2017-04-21T01:54:30.197Z,11.83
2017-04-21T01:55:40.118Z,11.45
2017-04-21T01:56:50.647Z,12.88
2017-04-21T01:58:00.580Z,12.17
2017-04-21T01:59:10.183Z,12.63
2017-04-21T02:00:19.518Z,11.77
2017-04-21T02:02:39.366Z,11.58
2017-04-21T02:03:45.651Z,12.10
2017-04-21T02:04:54.213Z,11.97
2017-04-21T02:06:06.731Z,12.28
2017-04-21T02:07:11.744Z,11.37
2017-04-21T02:08:15.155Z,12.00
2017-04-21T02:09:27.955Z,10.72
2017-04-21T02:10:35.271Z,10.38
2017-04-21T02:11:38.215Z,12.52
2017-04-21T02:12:46.480Z,12.03
2017-04-21T02:13:51.487Z,11.95
2017-04-21T02:14:56.463Z,12.57
2017-04-21T02:16:06.816Z,12.60
2017-04-21T02:17:11.734Z,11.43
2017-04-21T02:18:14.959Z,12.70
2017-04-21T02:19:21.060Z,11.90
2017-04-21T02:20:26.939Z,13.22
2017-04-21T02:21:32.895Z,13.58
2017-04-21T02:22:38.298Z,11.18
2017-04-21T02:23:43.960Z,13.02
2017-04-21T02:24:49.997Z,12.85
2017-04-21T02:26:02.149Z,13.18
2017-04-21T02:27:17.132Z,11.78
2017-04-21T02:28:20.204Z,11.38
2017-04-21T02:29:26.508Z,13.35
2017-04-21T02:30:28.799Z,13.47
2017-04-21T02:31:34.467Z,12.15
2017-04-21T02:32:41.492Z,13.17
2017-04-21T02:33:48.165Z,14.63
2017-04-21T02:34:53.784Z,11.93
2017-04-21T02:35:58.215Z,14.28
2017-04-21T02:37:04.935Z,12.62
2017-04-21T02:38:10.061Z,13.95
2017-04-21T02:39:12.803Z,13.67
2017-04-21T02:40:15.994Z,11.95
2017-04-21T02:41:18.539Z,12.67
2017-04-21T02:42:22.014Z,12.37
2017-04-21T02:43:31.957Z,13.98
2017-04-21T02:44:37.906Z,13.75
2017-04-21T02:45:52.283Z,12.58
2017-04-21T02:46:57.592Z,12.32
2017-04-21T02:48:12.333Z,15.15
2017-04-21T02:50:30.175Z,12.40
2017-04-21T02:51:39.904Z,12.40
2017-04-21T02:52:48.361Z,11.97
2017-04-21T02:53:56.346Z,12.88
2017-04-21T02:55:11.258Z,13.00
2017-04-21T02:56:23.565Z,12.65
2017-04-21T02:57:32.946Z,13.67
2017-04-21T02:58:43.121Z,13.93
2017-04-21T02:59:58.573Z,13.07
2017-04-21T03:01:09.879Z,11.15
2017-04-21T03:02:16.690Z,12.85
2017-04-21T03:03:25.073Z,14.62
2017-04-21T03:05:52.270Z,14.47
2017-04-21T03:07:00.304Z,12.30
2017-04-21T03:08:06.699Z,13.87
2017-04-21T03:09:16.606Z,12.05
2017-04-21T03:11:43.183Z,13.15
2017-04-21T03:12:56.630Z,13.95
2017-04-21T03:14:04.657Z,13.65
2017-04-21T03:15:17.811Z,13.18
2017-04-21T03:16:22.047Z,13.62
2017-04-21T03:17:36.875Z,12.55
2017-04-21T03:20:09.999Z,13.80
2017-04-21T03:21:19.048Z,12.32
2017-04-21T03:22:29.115Z,13.60
2017-04-21T03:23:41.452Z,12.82
2017-04-21T03:24:54.941Z,13.00
2017-04-21T03:26:01.385Z,13.40
2017-04-21T03:27:11.876Z,14.00
2017-04-21T03:28:24.431Z,12.13
2017-04-21T03:29:30.087Z,13.07
2017-04-21T03:30:43.824Z,15.23
2017-04-21T03:31:58.992Z,14.45
2017-04-21T03:33:04.663Z,14.23
2017-04-21T03:34:13.471Z,15.37
2017-04-21T03:36:53.927Z,13.30
2017-04-21T03:38:03.526Z,12.65
2017-04-21T03:39:16.301Z,13.97
2017-04-21T03:40:24.418Z,13.07
2017-04-21T03:41:30.719Z,12.72
2017-04-21T03:42:43.495Z,13.27
2017-04-21T03:43:54.252Z,13.20
2017-04-21T03:45:05.527Z,12.70
2017-04-21T03:46:15.436Z,12.63
2017-04-21T03:47:23.551Z,14.27
2017-04-21T03:48:34.071Z,11.72
2017-04-21T03:49:42.542Z,13.97
2017-04-21T03:50:53.760Z,12.42
2017-04-21T03:52:03.289Z,13.65
2017-04-21T03:53:11.511Z,14.63
2017-04-21T03:54:26.164Z,14.20
2017-04-21T03:55:41.144Z,13.97
2017-04-21T03:56:46.832Z,13.42
2017-04-21T03:57:54.155Z,13.30
2017-04-21T04:01:29.502Z,14.37
2017-04-21T04:02:35.647Z,14.43
2017-04-21T04:03:43.060Z,15.00
2017-04-21T04:04:54.682Z,14.20
2017-04-21T04:06:01.403Z,15.90
2017-04-21T04:07:12.223Z,14.68
2017-04-21T04:08:23.048Z,13.12
2017-04-21T04:09:32.459Z,13.87
2017-04-21T04:10:49.320Z,15.83
2017-04-21T04:13:19.611Z,14.17
2017-04-21T04:14:29.787Z,13.62
2017-04-21T04:17:01.615Z,14.92
2017-04-21T04:18:10.687Z,13.57
2017-04-21T04:19:23.256Z,14.65
2017-04-21T04:21:59.644Z,15.13
2017-04-21T04:23:13.814Z,14.33
2017-04-21T04:25:41.023Z,16.28
2017-04-21T04:26:46.670Z,15.38
2017-04-21T04:30:30.907Z,15.80
2017-04-21T04:31:40.244Z,14.98
2017-04-21T04:32:48.395Z,15.87
2017-04-21T04:33:56.511Z,15.08
2017-04-21T04:35:09.011Z,14.52
2017-04-21T04:36:21.463Z,13.93
2017-04-21T04:37:23.524Z,15.10
2017-04-21T04:38:24.936Z,15.65
2017-04-21T04:39:30.048Z,16.63
2017-04-21T04:40:32.127Z,14.08
2017-04-21T04:41:37.627Z,14.48
2017-04-21T04:42:42.927Z,15.88
2017-04-21T04:43:45.905Z,16.82
2017-04-21T04:44:54.873Z,15.73
2017-04-21T04:46:03.233Z,15.07
2017-04-21T04:47:30.419Z,16.78
2017-04-21T04:48:31.562Z,18.43
2017-04-21T04:49:32.438Z,17.85
2017-04-21T04:50:33.484Z,23.18
2017-04-21T04:51:34.287Z,20.37
2017-04-21T04:52:35.506Z,21.93
2017-04-21T04:53:36.680Z,22.92
2017-04-21T04:54:37.522Z,21.73
2017-04-21T04:55:38.554Z,21.32
2017-04-21T04:56:40.482Z,18.47
2017-04-21T04:57:41.930Z,19.80
2017-04-21T04:58:43.286Z,19.43
2017-04-21T04:59:47.424Z,17.87
2017-04-21T05:00:53.151Z,18.43
2017-04-21T05:01:53.698Z,19.38
2017-04-21T05:02:58.137Z,19.08
2017-04-21T05:03:58.989Z,16.92
2017-04-21T05:05:01.283Z,19.07
2017-04-21T05:06:04.579Z,20.05
2017-04-21T05:07:07.916Z,17.17
2017-04-21T05:08:09.739Z,18.30
2017-04-21T05:09:11.226Z,24.00
2017-04-21T05:10:11.688Z,20.30
2017-04-21T05:11:13.351Z,19.30
2017-04-21T05:12:15.115Z,17.85
2017-04-21T05:13:16.495Z,20.45
2017-04-21T05:14:17.496Z,18.17
2017-04-21T05:15:24.231Z,18.35
2017-04-21T05:16:27.360Z,17.83
2017-04-21T05:17:29.136Z,19.37
2017-04-21T05:18:29.651Z,20.43
2017-04-21T05:19:34.534Z,17.72
2017-04-21T05:20:36.057Z,17.92
2017-04-21T05:21:36.943Z,18.37
2017-04-21T05:22:38.543Z,21.32
2017-04-21T05:23:40.792Z,19.07
2017-04-21T05:24:41.088Z,20.88
2017-04-21T05:25:41.492Z,20.98
2017-04-21T05:26:42.898Z,17.43
2017-04-21T05:27:45.422Z,16.83
2017-04-21T05:28:50.859Z,18.18
2017-04-21T05:29:52.674Z,19.62
2017-04-21T05:30:56.276Z,20.20
2017-04-21T05:32:01.423Z,20.57
2017-04-21T05:33:03.198Z,18.62
2017-04-21T05:34:05.755Z,20.10
2017-04-21T05:35:07.207Z,26.77
2017-04-21T05:36:11.829Z,20.93
2017-04-21T05:37:14.627Z,23.85
2017-04-21T05:38:15.847Z,21.10
2017-04-21T05:39:18.963Z,23.93
2017-04-21T05:40:23.643Z,19.15
2017-04-21T05:41:24.354Z,22.77
2017-04-21T05:42:26.609Z,22.03
2017-04-21T05:43:27.760Z,24.32
2017-04-21T05:44:29.080Z,21.95
2017-04-21T05:45:33.001Z,19.78
2017-04-21T05:46:33.650Z,20.18
2017-04-21T05:47:34.735Z,22.37
2017-04-21T05:48:35.659Z,21.92
2017-04-21T05:49:36.914Z,22.10
2017-04-21T05:50:38.746Z,23.10
2017-04-21T05:51:41.122Z,23.15
2017-04-21T05:52:43.193Z,24.77
2017-04-21T05:53:44.304Z,20.68
2017-04-21T05:54:46.811Z,21.05
2017-04-21T05:55:48.273Z,21.90
2017-04-21T05:56:50.318Z,21.65
2017-04-21T05:57:52.612Z,22.45
2017-04-21T05:58:54.066Z,24.08
2017-04-21T06:00:01.074Z,23.20
2017-04-21T06:01:03.654Z,21.95
2017-04-21T06:02:04.645Z,21.70
2017-04-21T06:03:07.068Z,27.93
2017-04-21T06:04:09.028Z,25.58
2017-04-21T06:05:10.252Z,21.77
2017-04-21T06:06:11.212Z,22.00
2017-04-21T06:07:12.098Z,22.72
2017-04-21T06:08:12.620Z,24.53
2017-04-21T06:09:12.814Z,22.95
2017-04-21T06:10:12.974Z,23.98
2017-04-21T06:11:13.107Z,25.98
2017-04-21T06:12:13.206Z,24.35
2017-04-21T06:13:14.109Z,22.92
2017-04-21T06:14:14.235Z,22.13
2017-04-21T06:15:15.101Z,23.97
2017-04-21T06:16:15.582Z,32.07
2017-04-21T06:17:25.471Z,24.48
2017-04-21T06:18:33.304Z,26.27
2017-04-21T06:19:37.442Z,26.85
2017-04-21T06:20:37.786Z,26.13
2017-04-21T06:21:40.744Z,25.93
2017-04-21T06:22:41.626Z,27.60
2017-04-21T06:23:42.701Z,24.30
2017-04-21T06:24:44.894Z,25.30
2017-04-21T06:25:45.603Z,25.38
2017-04-21T06:26:45.790Z,23.47
2017-04-21T06:27:45.903Z,25.23
2017-04-21T06:28:46.023Z,24.63
2017-04-21T06:29:46.181Z,24.52
2017-04-21T06:30:47.102Z,25.67
2017-04-21T06:31:47.226Z,29.20
2017-04-21T06:32:48.090Z,25.13
2017-04-21T06:33:48.246Z,24.88
2017-04-21T06:34:48.459Z,27.38
2017-04-21T06:35:48.586Z,25.87
2017-04-21T06:36:49.454Z,24.90
2017-04-21T06:37:49.562Z,24.72
2017-04-21T06:38:49.657Z,29.02
2017-04-21T06:39:49.785Z,27.38
2017-04-21T06:40:49.885Z,27.62
2017-04-21T06:41:50.031Z,26.27
2017-04-21T06:42:50.154Z,26.90
2017-04-21T06:43:50.249Z,23.35
2017-04-21T06:44:50.381Z,25.92
2017-04-21T06:45:50.494Z,26.38
2017-04-21T06:46:50.602Z,27.05
2017-04-21T06:47:50.710Z,30.13
2017-04-21T06:48:50.838Z,25.15
2017-04-21T06:49:51.006Z,24.50
2017-04-21T06:50:51.131Z,28.58
2017-04-21T06:51:51.254Z,26.42
2017-04-21T06:52:52.423Z,29.60
2017-04-21T06:53:52.526Z,26.42
2017-04-21T06:54:52.676Z,24.40
2017-04-21T06:55:52.878Z,26.18
2017-04-21T06:56:53.733Z,28.28
2017-04-21T06:57:53.842Z,25.38
2017-04-21T06:58:54.880Z,28.12
2017-04-21T06:59:55.006Z,27.97
2017-04-21T07:00:55.130Z,27.80
2017-04-21T07:01:55.770Z,27.80
2017-04-21T07:02:58.943Z,26.83
2017-04-21T07:03:59.816Z,24.93
2017-04-21T07:05:02.842Z,27.58
2017-04-21T07:06:03.775Z,27.00
2017-04-21T07:07:05.287Z,26.83
2017-04-21T07:08:06.198Z,25.15
2017-04-21T07:09:07.154Z,28.27
2017-04-21T07:10:07.282Z,25.38
2017-04-21T07:11:07.381Z,31.68
2017-04-21T07:12:07.530Z,29.28
2017-04-21T07:13:07.659Z,28.52
2017-04-21T07:14:07.774Z,27.10
2017-04-21T07:15:07.902Z,25.85
2017-04-21T07:16:08.022Z,29.38
2017-04-21T07:17:08.866Z,27.62
2017-04-21T07:18:08.996Z,31.57
2017-04-21T07:19:09.114Z,28.85
2017-04-21T07:20:09.251Z,31.23
2017-04-21T07:21:09.373Z,31.72
2017-04-21T07:22:10.256Z,28.02
2017-04-21T07:23:10.364Z,30.93
2017-04-21T07:24:10.473Z,31.92
2017-04-21T07:25:10.623Z,25.87
2017-04-21T07:26:10.751Z,32.67
2017-04-21T07:27:10.902Z,29.75
2017-04-21T07:28:11.071Z,32.47
2017-04-21T07:29:11.196Z,27.93
2017-04-21T07:30:11.331Z,29.03
2017-04-21T07:31:11.450Z,33.00
2017-04-21T07:32:11.549Z,29.27
2017-04-21T07:33:11.667Z,28.85
2017-04-21T07:34:11.783Z,29.63
2017-04-21T07:35:11.957Z,28.65
2017-04-21T07:36:12.067Z,29.57
2017-04-21T07:37:12.502Z,30.55
2017-04-21T07:38:13.284Z,30.17
2017-04-21T07:39:14.159Z,29.07
2017-04-21T07:40:14.289Z,27.70
2017-04-21T07:41:14.430Z,29.77
2017-04-21T07:42:15.285Z,31.30
2017-04-21T07:43:17.356Z,28.43
2017-04-21T07:44:17.476Z,31.37
2017-04-21T07:45:17.606Z,26.52
2017-04-21T07:46:17.735Z,29.77
2017-04-21T07:47:17.862Z,27.92
2017-04-21T07:48:17.962Z,27.13
2017-04-21T07:49:18.852Z,29.40
2017-04-21T07:50:18.974Z,28.50
2017-04-21T07:51:19.980Z,26.93
2017-04-21T07:52:20.082Z,30.17
2017-04-21T07:53:20.198Z,28.22
2017-04-21T07:54:20.323Z,31.32
2017-04-21T07:55:20.453Z,27.80
2017-04-21T07:56:20.554Z,28.12
2017-04-21T07:57:20.730Z,30.72
2017-04-21T07:58:20.831Z,27.80
2017-04-21T07:59:20.934Z,28.18
2017-04-21T08:01:21.254Z,29.60
2017-04-21T08:02:21.372Z,29.12
2017-04-21T08:03:21.478Z,27.48
2017-04-21T08:04:21.590Z,31.05
2017-04-21T08:05:21.740Z,29.07
2017-04-21T08:06:21.854Z,27.95
2017-04-21T08:07:21.961Z,28.93
2017-04-21T08:08:22.050Z,27.90
2017-04-21T08:09:22.158Z,30.28
2017-04-21T08:10:22.293Z,29.95
2017-04-21T08:11:22.385Z,30.22
2017-04-21T08:12:22.499Z,33.57
2017-04-21T08:13:22.610Z,30.25
2017-04-21T08:14:22.732Z,30.12
2017-04-21T08:15:22.865Z,30.03
2017-04-21T08:16:22.962Z,30.95
2017-04-21T08:17:23.098Z,31.93
2017-04-21T08:18:23.224Z,32.83
2017-04-21T08:19:23.338Z,30.60
2017-04-21T08:20:23.474Z,34.12
2017-04-21T08:21:23.594Z,28.43
2017-04-21T08:22:23.699Z,30.20
2017-04-21T08:23:23.826Z,31.17
2017-04-21T08:24:23.934Z,27.80
2017-04-21T08:25:24.092Z,34.28
2017-04-21T08:26:24.193Z,32.00
2017-04-21T08:27:24.306Z,33.63
2017-04-21T08:28:24.414Z,31.30
2017-04-21T08:29:24.528Z,33.07
2017-04-21T08:30:24.712Z,37.28
2017-04-21T08:31:24.930Z,34.07
2017-04-21T08:32:25.778Z,30.23
2017-04-21T08:33:25.893Z,32.10
2017-04-21T08:34:26.036Z,33.67
2017-04-21T08:35:26.161Z,33.77
2017-04-21T08:36:26.282Z,32.08
2017-04-21T08:37:26.395Z,31.15
2017-04-21T08:38:26.694Z,30.43
2017-04-21T08:39:26.918Z,34.38
2017-04-21T08:40:27.045Z,30.22
2017-04-21T08:41:27.927Z,34.30
2017-04-21T08:42:28.054Z,30.37
2017-04-21T08:43:28.161Z,30.43
2017-04-21T08:44:28.291Z,30.52
2017-04-21T08:45:28.411Z,34.63
2017-04-21T08:46:29.970Z,32.70
2017-04-21T08:47:30.094Z,32.03
2017-04-21T08:48:30.562Z,32.65
2017-04-21T08:49:30.705Z,36.98
2017-04-21T08:50:30.818Z,33.30
2017-04-21T08:51:30.972Z,33.97
2017-04-21T08:52:31.082Z,33.22
2017-04-21T08:53:31.962Z,34.82
2017-04-21T08:54:32.078Z,32.75
2017-04-21T08:55:32.185Z,35.02
2017-04-21T08:56:32.314Z,33.32
2017-04-21T08:57:32.478Z,31.17
2017-04-21T08:58:32.598Z,33.40
2017-04-21T08:59:32.710Z,33.98
2017-04-21T09:00:33.591Z,33.22
2017-04-21T09:01:33.747Z,32.02
2017-04-21T09:02:34.606Z,36.93
2017-04-21T09:03:34.734Z,33.83
2017-04-21T09:04:35.598Z,34.57
2017-04-21T09:05:36.450Z,34.07
2017-04-21T09:06:36.582Z,33.47
2017-04-21T09:07:36.690Z,32.67
2017-04-21T09:08:36.802Z,32.75
2017-04-21T09:09:36.910Z,33.95
2017-04-21T09:10:37.018Z,36.92
2017-04-21T09:11:37.171Z,34.27
2017-04-21T09:12:37.286Z,32.03
2017-04-21T09:13:37.397Z,33.98
2017-04-21T09:14:37.519Z,36.62
2017-04-21T09:15:38.386Z,32.78
2017-04-21T09:16:38.520Z,33.45
2017-04-21T09:17:38.650Z,33.62
2017-04-21T09:18:39.019Z,31.00
2017-04-21T09:19:39.126Z,31.92
2017-04-21T09:20:39.234Z,34.50
2017-04-21T09:21:40.307Z,32.27
2017-04-21T09:22:40.426Z,34.18
2017-04-21T09:23:40.532Z,35.70
2017-04-21T09:24:40.655Z,34.50
2017-04-21T09:25:40.766Z,33.47
2017-04-21T09:26:40.879Z,34.43
2017-04-21T09:27:40.990Z,34.62
2017-04-21T09:28:41.839Z,32.47
2017-04-21T09:29:41.962Z,33.68
2017-04-21T09:31:02.849Z,35.05
2017-04-21T09:32:04.326Z,33.58
2017-04-21T09:32:42.469Z,34.88
2017-04-21T09:34:33.324Z,35.30
2017-04-21T09:34:43.499Z,32.75
2017-04-21T09:35:43.638Z,34.75
2017-04-21T09:36:43.770Z,36.53
2017-04-21T09:37:43.899Z,33.75
2017-04-21T09:38:44.038Z,33.82
2017-04-21T09:39:44.151Z,33.95
2017-04-21T09:40:44.259Z,34.70
2017-04-21T09:41:45.148Z,34.63
2017-04-21T09:42:45.268Z,31.18
2017-04-21T09:43:45.399Z,31.52
2017-04-21T09:44:45.546Z,32.58
2017-04-21T09:45:45.659Z,32.27
2017-04-21T09:46:45.785Z,34.62
2017-04-21T09:47:45.911Z,34.08
2017-04-21T09:48:46.032Z,34.08
2017-04-21T09:49:46.139Z,33.03
2017-04-21T09:50:46.258Z,34.22
2017-04-21T09:53:46.667Z,33.32
2017-04-21T09:56:04.955Z,34.85
2017-04-21T09:56:08.058Z,34.35
2017-04-21T09:57:06.052Z,35.25
2017-04-21T09:58:48.164Z,34.72
2017-04-21T10:00:04.092Z,35.68
2017-04-21T10:02:26.247Z,35.43
2017-04-21T10:02:26.334Z,36.03
2017-04-21T10:02:28.138Z,34.10
2017-04-21T10:02:32.020Z,35.15
2017-04-21T10:04:39.837Z,35.45
2017-04-21T10:06:12.463Z,35.48
2017-04-21T10:06:18.227Z,35.73
2017-04-21T10:07:42.357Z,34.48
2017-04-21T10:07:56.695Z,34.88
2017-04-21T10:08:09.167Z,37.45
2017-04-21T10:08:11.831Z,33.60
2017-04-21T10:08:50.626Z,35.98
2017-04-21T10:09:50.834Z,34.10
2017-04-21T10:10:51.058Z,34.55
2017-04-21T10:11:51.179Z,34.92
2017-04-21T10:12:51.322Z,35.60
2017-04-21T10:13:53.397Z,35.17
2017-04-21T10:14:55.442Z,33.95
2017-04-21T10:15:56.377Z,34.50
2017-04-21T10:16:56.510Z,36.57
2017-04-21T10:17:56.634Z,35.87
2017-04-21T10:18:56.741Z,33.43
2017-04-21T10:19:56.849Z,33.07
2017-04-21T10:20:57.098Z,36.12
2017-04-21T10:21:57.233Z,36.92
2017-04-21T10:22:57.398Z,38.40
2017-04-21T10:23:57.614Z,38.35
2017-04-21T10:24:57.737Z,35.70
2017-04-21T10:25:57.846Z,36.47
2017-04-21T10:26:58.709Z,34.32
2017-04-21T10:27:59.586Z,34.95
2017-04-21T10:28:59.696Z,35.50
2017-04-21T10:29:59.847Z,35.02
2017-04-21T10:30:59.962Z,35.38
2017-04-21T10:32:00.818Z,38.63
2017-04-21T10:33:00.950Z,36.12
2017-04-21T10:34:01.054Z,37.67
2017-04-21T10:35:01.165Z,35.20
2017-04-21T10:36:01.297Z,35.23
2017-04-21T10:37:01.425Z,35.17
2017-04-21T10:38:01.548Z,35.45
2017-04-21T10:39:02.397Z,32.92
2017-04-21T10:40:02.509Z,34.67
2017-04-21T10:41:02.656Z,36.13
2017-04-21T10:42:02.798Z,37.57
2017-04-21T10:43:02.910Z,37.17
2017-04-21T10:44:03.017Z,34.32
2017-04-21T10:45:03.139Z,38.68
2017-04-21T10:46:04.018Z,37.67
2017-04-21T10:47:04.210Z,33.80
2017-04-21T10:48:04.329Z,37.68
2017-04-21T10:49:04.430Z,35.23
2017-04-21T10:50:04.555Z,35.55
2017-04-21T10:51:04.681Z,34.77
2017-04-21T10:52:05.550Z,33.15
2017-04-21T10:53:06.413Z,32.20
2017-04-21T10:54:06.522Z,34.57
2017-04-21T10:55:06.626Z,37.40
2017-04-21T10:56:06.760Z,33.17
2017-04-21T10:57:06.898Z,34.10
2017-04-21T10:58:07.047Z,34.62
2017-04-21T10:59:07.166Z,38.03
2017-04-21T11:00:07.369Z,37.00
2017-04-21T11:01:07.414Z,34.77
2017-04-21T11:02:07.591Z,36.68
2017-04-21T11:03:07.725Z,37.58
2017-04-21T11:04:07.840Z,37.43
2017-04-21T11:05:07.946Z,36.93
2017-04-21T11:06:08.059Z,37.90
2017-04-21T11:07:08.930Z,35.88
2017-04-21T11:08:09.791Z,38.58
2017-04-21T11:09:09.899Z,36.70
2017-04-21T11:10:10.006Z,35.65
2017-04-21T11:11:10.099Z,36.98
2017-04-21T11:12:10.246Z,35.37
2017-04-21T11:13:10.357Z,35.42
2017-04-21T11:14:10.486Z,35.58
2017-04-21T11:15:10.614Z,33.60
2017-04-21T11:16:11.463Z,34.52
2017-04-21T11:17:11.601Z,32.90
2017-04-21T11:18:11.729Z,32.67
2017-04-21T11:19:11.862Z,32.65
2017-04-21T11:20:11.977Z,32.83
2017-04-21T11:21:12.081Z,37.77
2017-04-21T11:22:12.224Z,34.33
2017-04-21T11:23:12.684Z,33.37
2017-04-21T11:24:12.802Z,35.57
2017-04-21T11:25:12.914Z,34.78
2017-04-21T11:26:13.022Z,34.18
2017-04-21T11:27:13.149Z,34.48
2017-04-21T11:28:13.370Z,35.45
2017-04-21T11:29:14.242Z,34.87
2017-04-21T11:30:14.367Z,33.18
2017-04-21T11:31:14.578Z,36.37
2017-04-21T11:32:15.514Z,35.37
2017-04-21T11:33:15.633Z,35.32
2017-04-21T11:34:15.774Z,35.65
2017-04-21T11:35:16.639Z,35.47
2017-04-21T11:36:16.770Z,33.85
2017-04-21T11:37:16.898Z,35.10
2017-04-21T11:38:17.017Z,33.35
2017-04-21T11:39:17.178Z,35.98
2017-04-21T11:40:17.313Z,36.40
2017-04-21T11:41:17.414Z,33.98
2017-04-21T11:42:17.614Z,35.40
2017-04-21T11:43:17.717Z,34.98
2017-04-21T11:44:17.829Z,34.80
2017-04-21T11:45:17.951Z,34.47
2017-04-21T11:46:18.068Z,36.33
2017-04-21T11:47:18.213Z,33.15
2017-04-21T11:48:18.334Z,34.82
2017-04-21T11:49:18.472Z,33.38
2017-04-21T11:50:18.609Z,33.00
2017-04-21T11:51:18.734Z,35.27
2017-04-21T11:52:18.881Z,36.63
2017-04-21T11:53:19.006Z,34.73
2017-04-21T11:54:19.113Z,35.97
2017-04-21T11:55:19.214Z,36.83
2017-04-21T11:56:19.338Z,35.33
2017-04-21T11:57:19.478Z,38.00
2017-04-21T11:58:19.583Z,37.13
2017-04-21T11:59:19.699Z,35.95
2017-04-21T12:00:19.822Z,36.17
2017-04-21T12:01:20.074Z,36.30
2017-04-21T12:02:20.208Z,35.80
2017-04-21T12:03:20.398Z,34.70
2017-04-21T12:04:20.506Z,36.78
2017-04-21T12:05:20.625Z,35.13
2017-04-21T12:06:20.767Z,35.42
2017-04-21T12:07:21.714Z,34.77
2017-04-21T12:08:21.831Z,34.48
2017-04-21T12:09:21.977Z,35.07
2017-04-21T12:10:22.086Z,35.38
2017-04-21T12:11:22.186Z,38.32
2017-04-21T12:12:22.374Z,35.87
2017-04-21T12:13:21.714Z,38.72
2017-04-21T12:14:21.857Z,39.22
2017-04-21T12:15:21.965Z,37.77
2017-04-21T12:16:22.089Z,33.83
2017-04-21T12:17:22.262Z,37.82
2017-04-21T12:18:22.384Z,36.25
2017-04-21T12:19:22.507Z,33.68
2017-04-21T12:20:22.666Z,38.87
2017-04-21T12:21:22.809Z,37.72
2017-04-21T12:22:22.934Z,35.92
2017-04-21T12:23:23.056Z,36.67
2017-04-21T12:24:23.183Z,36.75
2017-04-21T12:25:24.034Z,37.25
2017-04-21T12:26:24.134Z,36.47
2017-04-21T12:27:23.482Z,35.15
2017-04-21T12:28:23.606Z,39.00
2017-04-21T12:29:23.714Z,38.13
2017-04-21T12:30:23.821Z,39.05
2017-04-21T12:31:23.949Z,37.87
2017-04-21T12:32:24.077Z,38.18
2017-04-21T12:33:24.194Z,36.75
2017-04-21T12:34:24.325Z,38.38
2017-04-21T12:35:24.469Z,36.05
2017-04-21T12:36:24.581Z,36.57
2017-04-21T12:37:24.698Z,38.20
2017-04-21T12:38:24.826Z,36.98
2017-04-21T12:39:24.963Z,35.60
2017-04-21T12:40:25.119Z,32.57
2017-04-21T12:41:25.239Z,31.20
2017-04-21T12:42:25.353Z,27.90
2017-04-21T12:43:25.510Z,29.50
2017-04-21T12:44:25.633Z,29.32
2017-04-21T12:45:25.798Z,28.70
2017-04-21T12:46:26.780Z,26.82
2017-04-21T12:47:27.634Z,28.15
2017-04-21T12:48:27.790Z,27.88
2017-04-21T12:49:27.913Z,27.52
2017-04-21T12:50:28.042Z,29.55
2017-04-21T12:51:28.174Z,27.92
2017-04-21T12:52:28.284Z,28.22
2017-04-21T12:53:28.598Z,29.15
2017-04-21T12:54:28.730Z,28.27
2017-04-21T12:55:29.574Z,28.05
2017-04-21T12:56:29.687Z,29.35
2017-04-21T12:57:29.817Z,26.70
2017-04-21T12:58:29.946Z,28.75
2017-04-21T12:59:30.366Z,28.63
2017-04-21T13:00:30.483Z,28.07
2017-04-21T13:01:31.503Z,28.85
2017-04-21T13:02:31.613Z,27.90
2017-04-21T13:03:32.522Z,26.88
2017-04-21T13:04:33.235Z,27.10
2017-04-21T13:05:33.570Z,27.32
2017-04-21T13:06:33.698Z,24.27
2017-04-21T13:07:34.043Z,25.07
2017-04-21T13:08:34.459Z,24.30
2017-04-21T13:09:34.573Z,22.60
2017-04-21T13:10:35.467Z,23.23
2017-04-21T13:11:36.358Z,23.90
2017-04-21T13:12:37.433Z,23.38
2017-04-21T13:13:37.722Z,22.25
2017-04-21T13:14:38.057Z,21.95
2017-04-21T13:15:38.415Z,20.92
2017-04-21T13:16:38.547Z,21.18
2017-04-21T13:17:38.677Z,20.95
2017-04-21T13:18:38.802Z,21.27
2017-04-21T13:19:38.910Z,22.08
2017-04-21T13:21:14.029Z,21.25
2017-04-21T13:22:14.204Z,19.23
2017-04-21T13:23:14.317Z,18.03
2017-04-21T13:24:14.503Z,20.00
2017-04-21T13:25:14.682Z,17.30
2017-04-21T13:26:14.782Z,18.20
2017-04-21T13:27:14.883Z,18.33
2017-04-21T13:28:14.997Z,20.40
2017-04-21T13:29:15.134Z,21.95
2017-04-21T13:30:15.966Z,21.30
2017-04-21T13:31:16.115Z,20.58
2017-04-21T13:32:16.237Z,19.98
2017-04-21T13:33:16.345Z,21.27
2017-04-21T13:34:16.467Z,21.35
2017-04-21T13:35:16.581Z,20.85
2017-04-21T13:36:16.675Z,20.92
2017-04-21T13:37:16.813Z,21.40
2017-04-21T13:38:16.922Z,21.90
2017-04-21T13:39:17.035Z,21.88
2017-04-21T13:40:17.166Z,22.68
2017-04-21T13:41:18.074Z,22.98
2017-04-21T13:42:18.206Z,21.47
2017-04-21T13:43:18.314Z,22.98
2017-04-21T13:44:18.418Z,24.07
2017-04-21T13:45:19.247Z,22.42
2017-04-21T13:46:19.703Z,22.95
2017-04-21T13:47:19.815Z,25.08
2017-04-21T13:48:19.919Z,24.13
2017-04-21T13:49:20.034Z,23.60
2017-04-21T13:50:20.153Z,23.50
2017-04-21T13:51:20.251Z,22.97
2017-04-21T13:52:20.360Z,21.97
2017-04-21T13:53:21.583Z,23.25
2017-04-21T13:54:21.716Z,24.87
2017-04-21T13:55:21.827Z,22.92
2017-04-21T13:56:21.939Z,23.70
2017-04-21T13:57:22.033Z,24.83